Time;durP1;ratioP1;P1;durP2;ratioP2;P2;SDS_P1;SDS_P2;PMS_P1;PMS_P2;Temp;Humidity;BMP_temperature;BMP_pressure;BME280_temperature;BME280_humidity;BME280_pressure;Samples;Min_cycle;Max_cycle;Signal;HPM_P1;HPM_P2
2022/05/17 00:02:06;;;;;;;12.70;3.53;;;17.50;65.50;;;;;;4992110;28;20064;-76
2022/05/17 00:04:33;;;;;;;15.00;4.50;;;17.50;65.60;;;;;;4987364;28;20098;-75
2022/05/17 00:07:03;;;;;;;11.80;3.40;;;17.50;65.70;;;;;;4973319;28;20552;-75
2022/05/17 00:09:29;;;;;;;11.73;3.30;;;17.40;65.60;;;;;;4996007;28;20038;-75
2022/05/17 00:11:56;;;;;;;15.75;3.47;;;17.40;65.70;;;;;;4995869;28;20034;-75
2022/05/17 00:14:22;;;;;;;7.28;2.35;;;17.40;65.70;;;;;;5006033;28;20031;-76
2022/05/17 00:16:48;;;;;;;12.60;3.85;;;17.30;65.60;;;;;;4999114;28;20098;-76
2022/05/17 00:19:16;;;;;;;10.35;3.03;;;17.30;65.70;;;;;;5000246;28;20029;-75
2022/05/17 00:21:44;;;;;;;11.23;3.55;;;17.30;65.70;;;;;;4994665;28;20042;-75
2022/05/17 00:24:11;;;;;;;11.88;4.07;;;17.30;65.80;;;;;;4978010;28;20037;-75
2022/05/17 00:26:37;;;;;;;10.48;3.45;;;17.20;65.70;;;;;;4978800;28;20041;-75
2022/05/17 00:29:04;;;;;;;9.07;2.80;;;17.20;65.70;;;;;;4967723;28;20452;-75
2022/05/17 00:31:31;;;;;;;8.98;2.85;;;17.20;65.80;;;;;;4955418;28;20034;-75
2022/05/17 00:33:57;;;;;;;10.32;3.45;;;17.20;65.80;;;;;;4983994;28;20026;-73
2022/05/17 00:36:24;;;;;;;19.02;5.50;;;17.20;65.80;;;;;;4985815;28;20096;-76
2022/05/17 00:38:50;;;;;;;10.55;3.42;;;17.20;65.80;;;;;;4983678;28;20382;-76
2022/05/17 00:41:16;;;;;;;10.52;3.40;;;17.20;65.90;;;;;;4985404;28;20026;-75
2022/05/17 00:46:53;;;;;;;11.00;3.55;;;17.20;65.90;;;;;;4985000;28;20080;-74
2022/05/17 00:49:36;;;;;;;11.68;3.40;;;17.20;66.10;;;;;;4967709;28;20029;-75
2022/05/17 00:52:08;;;;;;;11.90;3.42;;;17.20;66.00;;;;;;4957546;28;20159;-75
2022/05/17 00:54:36;;;;;;;12.55;3.60;;;17.10;65.80;;;;;;4983154;28;20030;-74
2022/05/17 00:57:08;;;;;;;12.82;4.13;;;17.10;65.90;;;;;;4980159;28;20034;-73
2022/05/17 00:59:36;;;;;;;14.15;3.90;;;17.10;66.00;;;;;;4985014;28;20046;-74
2022/05/17 01:02:04;;;;;;;11.50;3.17;;;17.10;66.00;;;;;;4983183;28;20036;-75
2022/05/17 01:04:30;;;;;;;9.77;3.38;;;17.10;66.00;;;;;;4972231;28;20046;-74
2022/05/17 01:07:06;;;;;;;8.85;3.22;;;17.00;65.90;;;;;;4979481;28;20749;-74
2022/05/17 01:09:32;;;;;;;17.15;4.20;;;17.00;66.00;;;;;;4991911;28;20069;-74
2022/05/17 01:11:58;;;;;;;10.02;3.13;;;17.00;66.10;;;;;;4973399;28;20545;-76
2022/05/17 01:17:09;;;;;;;9.90;3.53;;;16.90;66.00;;;;;;4984120;28;20117;-76
2022/05/17 01:19:38;;;;;;;10.00;3.00;;;16.90;66.10;;;;;;4977130;28;20549;-74
2022/05/17 01:22:04;;;;;;;11.55;3.65;;;16.90;66.20;;;;;;4984507;28;20041;-75
2022/05/17 01:24:29;;;;;;;7.20;3.00;;;16.80;66.10;;;;;;4993422;28;20022;-75
2022/05/17 01:27:01;;;;;;;10.73;2.78;;;16.80;66.20;;;;;;4961966;28;20120;-75
2022/05/17 01:29:27;;;;;;;11.10;3.58;;;16.80;66.90;;;;;;4951857;28;20125;-75
2022/05/17 01:31:53;;;;;;;8.35;2.65;;;16.70;66.10;;;;;;4980804;28;20420;-75
2022/05/17 01:34:21;;;;;;;8.27;3.30;;;16.70;66.20;;;;;;4986509;28;20513;-75
2022/05/17 01:36:47;;;;;;;10.32;3.22;;;16.70;66.30;;;;;;4980827;28;20027;-75
2022/05/17 01:39:13;;;;;;;10.52;3.88;;;16.60;66.20;;;;;;4967188;28;20521;-76
2022/05/17 01:41:39;;;;;;;11.45;3.40;;;16.60;66.20;;;;;;4984602;28;20034;-76
2022/05/17 01:44:05;;;;;;;11.13;3.42;;;16.60;66.30;;;;;;4983212;28;20030;-76
2022/05/17 01:46:30;;;;;;;10.82;2.72;;;16.60;66.40;;;;;;4983789;28;20066;-75
2022/05/17 01:48:57;;;;;;;13.07;3.97;;;16.60;66.40;;;;;;4969188;28;20026;-75
2022/05/17 01:51:24;;;;;;;11.38;3.58;;;16.50;66.30;;;;;;4989128;28;20053;-76
2022/05/17 01:53:50;;;;;;;11.10;4.05;;;16.50;66.40;;;;;;4987367;28;20786;-75
2022/05/17 01:56:16;;;;;;;12.55;3.92;;;16.40;66.30;;;;;;4987654;28;20038;-75
2022/05/17 01:58:42;;;;;;;11.88;2.88;;;16.40;66.40;;;;;;4998351;28;20031;-75
2022/05/17 02:01:10;;;;;;;12.02;4.00;;;16.40;66.40;;;;;;4993257;28;20592;-75
2022/05/17 02:03:36;;;;;;;9.15;3.60;;;16.40;66.50;;;;;;4993061;28;20038;-75
2022/05/17 02:06:02;;;;;;;10.63;3.33;;;16.30;66.30;;;;;;4991655;28;20038;-76
2022/05/17 02:08:29;;;;;;;7.60;3.00;;;16.30;66.40;;;;;;4998182;28;20041;-75
2022/05/17 02:10:56;;;;;;;15.43;5.45;;;16.30;66.50;;;;;;4990259;28;20054;-75
2022/05/17 02:13:22;;;;;;;13.32;3.47;;;16.20;66.40;;;;;;4973824;28;20038;-76
2022/05/17 02:15:48;;;;;;;15.65;4.50;;;16.20;66.40;;;;;;4987262;28;20034;-76
2022/05/17 02:18:13;;;;;;;9.07;3.30;;;16.20;66.50;;;;;;4982445;28;20059;-76
2022/05/17 02:20:40;;;;;;;10.15;3.00;;;16.20;66.60;;;;;;4989914;28;20046;-75
2022/05/17 02:23:07;;;;;;;10.35;3.10;;;16.10;66.40;;;;;;4994472;28;20049;-75
2022/05/17 02:25:34;;;;;;;11.05;3.88;;;16.10;66.40;;;;;;4976592;28;20393;-73
2022/05/17 02:28:10;;;;;;;8.75;2.85;;;16.10;66.60;;;;;;4969040;28;20518;-74
2022/05/17 02:30:36;;;;;;;8.05;3.10;;;16.00;66.40;;;;;;4990719;28;20034;-76
2022/05/17 02:33:04;;;;;;;12.95;3.92;;;16.00;66.40;;;;;;4988266;28;20041;-73
2022/05/17 02:35:30;;;;;;;10.45;2.65;;;16.00;66.50;;;;;;4975001;28;20034;-74
2022/05/17 02:37:55;;;;;;;11.75;4.50;;;15.90;66.40;;;;;;5001142;28;20389;-74
2022/05/17 02:40:21;;;;;;;7.88;2.83;;;15.90;66.50;;;;;;4990461;28;20505;-75
2022/05/17 02:42:47;;;;;;;10.75;2.75;;;15.90;66.50;;;;;;4948301;28;20030;-74
2022/05/17 02:45:13;;;;;;;11.07;3.10;;;15.90;66.60;;;;;;4990581;28;20156;-74
2022/05/17 02:47:39;;;;;;;11.02;3.25;;;15.90;66.60;;;;;;4989447;28;20065;-74
2022/05/17 02:50:05;;;;;;;9.13;2.95;;;15.80;66.50;;;;;;4990724;28;20026;-74
2022/05/17 02:52:31;;;;;;;11.38;4.07;;;15.80;66.60;;;;;;4985342;28;20558;-74
2022/05/17 02:54:57;;;;;;;11.40;3.85;;;15.80;66.70;;;;;;4989140;28;20041;-75
2022/05/17 02:57:23;;;;;;;11.02;3.75;;;15.80;66.70;;;;;;4988585;28;20022;-75
2022/05/17 02:59:49;;;;;;;12.18;4.88;;;15.70;66.60;;;;;;4990147;28;20046;-75
2022/05/17 03:02:14;;;;;;;10.68;3.33;;;15.70;66.70;;;;;;4974160;28;20552;-75
2022/05/17 03:04:41;;;;;;;13.52;3.53;;;15.70;66.70;;;;;;4975945;28;20058;-75
2022/05/17 03:07:07;;;;;;;10.10;4.07;;;15.70;67.30;;;;;;4988932;28;20142;-74
2022/05/17 03:09:33;;;;;;;9.95;3.63;;;15.70;66.80;;;;;;4989644;28;20113;-74
2022/05/17 03:11:59;;;;;;;13.02;3.72;;;15.60;66.70;;;;;;4985992;28;20038;-74
2022/05/17 03:14:24;;;;;;;8.32;3.05;;;15.60;66.70;;;;;;4999539;28;20494;-74
2022/05/17 03:16:50;;;;;;;9.30;2.88;;;15.60;66.80;;;;;;4981349;28;20035;-74
2022/05/17 03:19:17;;;;;;;12.95;4.57;;;15.60;66.80;;;;;;4989642;28;20136;-75
2022/05/17 03:21:43;;;;;;;12.57;4.70;;;15.50;66.70;;;;;;4998783;28;20082;-74
2022/05/17 03:24:09;;;;;;;12.73;3.50;;;15.50;66.70;;;;;;4992496;28;20142;-74
2022/05/17 03:26:35;;;;;;;14.00;5.70;;;15.50;66.80;;;;;;4988853;28;20046;-75
2022/05/17 03:29:01;;;;;;;11.00;3.25;;;15.40;66.70;;;;;;4972054;28;20031;-75
2022/05/17 03:31:27;;;;;;;9.07;3.38;;;15.50;66.90;;;;;;4974869;28;20037;-75
2022/05/17 03:33:53;;;;;;;12.63;3.05;;;15.40;66.80;;;;;;4989092;28;20085;-75
2022/05/17 03:36:20;;;;;;;9.85;3.83;;;15.40;66.80;;;;;;4988833;28;20521;-74
2022/05/17 03:38:46;;;;;;;10.65;3.42;;;15.40;66.90;;;;;;4973602;28;20088;-75
2022/05/17 03:41:12;;;;;;;9.93;3.40;;;15.40;67.00;;;;;;4989143;28;20030;-75
2022/05/17 03:43:38;;;;;;;9.48;3.30;;;15.40;67.10;;;;;;4983738;28;20367;-75
2022/05/17 03:46:07;;;;;;;12.23;3.85;;;15.40;67.10;;;;;;4985087;28;20057;-74
2022/05/17 03:48:33;;;;;;;10.13;3.03;;;15.40;67.10;;;;;;4989210;28;20090;-73
2022/05/17 03:50:59;;;;;;;12.13;3.10;;;15.40;67.10;;;;;;4990498;28;20395;-75
2022/05/17 03:53:25;;;;;;;11.45;4.00;;;15.30;67.00;;;;;;4964187;28;20025;-75
2022/05/17 03:55:50;;;;;;;9.93;3.92;;;15.30;67.00;;;;;;4987263;28;20038;-75
2022/05/17 03:58:16;;;;;;;11.35;3.22;;;15.30;67.10;;;;;;4972190;28;20018;-75
2022/05/17 04:00:42;;;;;;;11.98;3.85;;;15.30;67.10;;;;;;4941749;28;20386;-75
2022/05/17 04:03:08;;;;;;;11.30;4.38;;;15.30;67.20;;;;;;4988862;28;20034;-74
2022/05/17 04:05:35;;;;;;;14.30;4.45;;;15.30;67.30;;;;;;4974204;28;20051;-74
2022/05/17 04:08:01;;;;;;;9.52;3.00;;;15.30;67.30;;;;;;4978637;28;20162;-75
2022/05/17 04:10:27;;;;;;;9.98;3.95;;;15.30;67.30;;;;;;4999452;28;20084;-75
2022/05/17 04:12:53;;;;;;;8.07;3.38;;;15.30;67.30;;;;;;4999329;28;20181;-74
2022/05/17 04:15:21;;;;;;;18.98;5.13;;;15.30;67.30;;;;;;4996175;28;20038;-75
2022/05/17 04:17:49;;;;;;;6.95;3.15;;;15.30;67.40;;;;;;4981586;28;20022;-75
2022/05/17 04:20:16;;;;;;;9.95;4.18;;;15.30;67.40;;;;;;4994778;28;20032;-75
2022/05/17 04:22:48;;;;;;;8.60;4.57;;;15.30;67.50;;;;;;4989231;28;20037;-75
2022/05/17 04:25:16;;;;;;;9.63;4.68;;;15.30;67.50;;;;;;4988806;28;20061;-76
2022/05/17 04:27:43;;;;;;;10.40;4.05;;;15.20;67.30;;;;;;4986290;28;20039;-76
2022/05/17 04:30:10;;;;;;;9.68;3.55;;;15.20;67.40;;;;;;4971820;28;20031;-76
2022/05/17 04:32:36;;;;;;;12.05;4.40;;;15.20;67.40;;;;;;4980350;28;20191;-75
2022/05/17 04:35:03;;;;;;;8.65;3.67;;;15.20;67.50;;;;;;4994452;28;20133;-75
2022/05/17 04:37:29;;;;;;;15.07;5.20;;;15.20;67.50;;;;;;4958299;28;20031;-76
2022/05/17 04:39:55;;;;;;;10.93;4.50;;;15.20;67.50;;;;;;4977761;28;20030;-75
2022/05/17 04:42:21;;;;;;;7.65;3.72;;;15.20;67.60;;;;;;4994148;28;20026;-75
2022/05/17 04:44:50;;;;;;;7.25;3.63;;;15.10;68.00;;;;;;4970853;28;20478;-74
2022/05/17 04:47:18;;;;;;;8.20;3.38;;;15.20;67.70;;;;;;4983905;28;20054;-75
2022/05/17 04:49:44;;;;;;;10.95;4.10;;;15.20;67.70;;;;;;4994124;28;20030;-74
2022/05/17 04:52:10;;;;;;;10.48;4.47;;;15.20;67.80;;;;;;4977530;28;20441;-74
2022/05/17 04:54:36;;;;;;;10.07;4.45;;;15.10;67.60;;;;;;4987283;28;20571;-74
2022/05/17 04:57:02;;;;;;;13.50;4.10;;;15.20;67.80;;;;;;4985006;28;20117;-73
2022/05/17 04:59:27;;;;;;;6.90;5.13;;;15.10;67.60;;;;;;4984171;28;20161;-73
2022/05/17 05:01:53;;;;;;;9.70;4.13;;;15.10;67.70;;;;;;4998864;28;20713;-74
2022/05/17 05:04:19;;;;;;;8.73;4.50;;;15.10;67.70;;;;;;4987355;28;20045;-74
2022/05/17 05:06:45;;;;;;;9.27;4.75;;;15.10;67.70;;;;;;4979785;28;20045;-74
2022/05/17 05:09:11;;;;;;;8.75;5.00;;;15.10;67.70;;;;;;4994152;28;20173;-74
2022/05/17 05:11:38;;;;;;;5.82;3.92;;;15.10;67.70;;;;;;4991581;28;20497;-74
2022/05/17 05:14:05;;;;;;;8.85;4.80;;;15.20;67.90;;;;;;4991099;28;20041;-74
2022/05/17 05:16:32;;;;;;;7.75;4.13;;;15.10;67.80;;;;;;4996143;28;20397;-74
2022/05/17 05:18:58;;;;;;;9.95;4.85;;;15.20;67.90;;;;;;4991724;28;20026;-75
2022/05/17 05:21:24;;;;;;;10.13;4.80;;;15.10;67.80;;;;;;4974671;28;20072;-74
2022/05/17 05:23:50;;;;;;;7.75;4.45;;;15.20;68.00;;;;;;4975164;28;20589;-74
2022/05/17 05:26:16;;;;;;;10.05;5.03;;;15.20;68.00;;;;;;4993359;28;20065;-75
2022/05/17 05:28:44;;;;;;;8.27;4.80;;;15.20;68.00;;;;;;4990220;28;20029;-75
2022/05/17 05:31:12;;;;;;;8.45;4.53;;;15.20;68.00;;;;;;4992579;28;20050;-77
2022/05/17 05:33:39;;;;;;;13.55;6.13;;;15.30;68.10;;;;;;4995948;28;20031;-75
2022/05/17 05:36:06;;;;;;;10.75;5.10;;;15.30;68.10;;;;;;5002141;28;20038;-74
2022/05/17 05:38:32;;;;;;;7.75;5.05;;;15.30;68.10;;;;;;4978261;28;20030;-74
2022/05/17 05:40:58;;;;;;;11.45;5.22;;;15.30;68.00;;;;;;5002712;28;20378;-74
2022/05/17 05:43:25;;;;;;;7.78;4.43;;;15.40;68.20;;;;;;4998191;28;20027;-74
2022/05/17 05:45:51;;;;;;;6.25;4.30;;;15.40;68.10;;;;;;5001246;28;20489;-78
2022/05/17 05:48:16;;;;;;;7.97;4.45;;;15.40;68.10;;;;;;4992891;28;20054;-73
2022/05/17 05:50:42;;;;;;;7.53;4.72;;;15.50;68.40;;;;;;4981870;28;20034;-76
2022/05/17 05:53:11;;;;;;;7.80;4.43;;;15.50;68.70;;;;;;4969102;28;20061;-76
2022/05/17 05:55:38;;;;;;;7.75;4.20;;;15.50;68.80;;;;;;4992417;28;20413;-76
2022/05/17 05:58:06;;;;;;;8.50;3.92;;;15.60;68.90;;;;;;4981415;28;20134;-76
2022/05/17 06:00:32;;;;;;;6.70;4.25;;;15.60;68.90;;;;;;4975892;28;20394;-78
2022/05/17 06:02:59;;;;;;;7.70;3.72;;;15.70;69.10;;;;;;4982912;28;20353;-88
2022/05/17 06:05:26;;;;;;;8.82;3.63;;;15.70;69.20;;;;;;4998158;28;20045;-83
2022/05/17 06:07:52;;;;;;;7.95;4.15;;;15.80;70.20;;;;;;4999635;28;20070;-78
2022/05/17 06:10:20;;;;;;;9.02;3.63;;;15.90;71.10;;;;;;4988982;28;20060;-77
2022/05/17 06:12:46;;;;;;;6.50;3.60;;;16.00;71.70;;;;;;4993875;28;20040;-80
2022/05/17 06:15:13;;;;;;;8.57;3.85;;;16.20;72.00;;;;;;4983134;28;20046;-76
2022/05/17 06:17:39;;;;;;;6.20;3.67;;;16.20;71.90;;;;;;4990264;28;20022;-80
2022/05/17 06:20:07;;;;;;;6.03;3.13;;;16.30;72.00;;;;;;4975721;28;20034;-75
2022/05/17 06:22:34;;;;;;;6.00;2.92;;;16.40;72.40;;;;;;4987095;28;20042;-79
2022/05/17 06:25:01;;;;;;;4.85;3.03;;;16.50;72.90;;;;;;4992250;28;20022;-73
2022/05/17 06:27:27;;;;;;;8.20;2.50;;;16.70;73.50;;;;;;5004357;28;20045;-74
2022/05/17 06:29:54;;;;;;;6.20;2.80;;;17.10;73.90;;;;;;4991609;28;20490;-75
2022/05/17 06:32:20;;;;;;;6.05;2.95;;;17.70;73.80;;;;;;4987532;28;20035;-74
2022/05/17 06:34:48;;;;;;;6.55;2.83;;;18.30;73.20;;;;;;4992235;28;20374;-74
2022/05/17 06:37:14;;;;;;;4.80;2.50;;;18.90;72.50;;;;;;4988484;28;20037;-74
2022/05/17 06:39:40;;;;;;;3.92;2.13;;;19.50;71.90;;;;;;4999877;28;20452;-74
2022/05/17 06:42:07;;;;;;;6.65;3.85;;;20.00;71.20;;;;;;4987262;28;20416;-75
2022/05/17 06:44:33;;;;;;;5.78;2.80;;;20.60;70.80;;;;;;4985020;28;20394;-75
2022/05/17 06:46:59;;;;;;;6.35;2.72;;;21.10;70.40;;;;;;4988163;28;20090;-75
2022/05/17 06:49:26;;;;;;;4.95;2.20;;;21.50;69.70;;;;;;4988524;28;20508;-74
2022/05/17 06:51:53;;;;;;;6.93;2.60;;;22.00;69.40;;;;;;4999810;28;20034;-75
2022/05/17 06:54:19;;;;;;;4.70;2.22;;;22.50;68.90;;;;;;4989635;28;20060;-75
2022/05/17 06:56:45;;;;;;;6.63;2.85;;;23.00;68.60;;;;;;4998035;28;20335;-75
2022/05/17 06:59:12;;;;;;;4.97;2.42;;;23.40;68.10;;;;;;5000536;28;20108;-75
2022/05/17 07:01:39;;;;;;;3.88;2.10;;;23.90;67.70;;;;;;4983185;28;20619;-75
2022/05/17 07:04:05;;;;;;;4.82;2.38;;;24.30;67.30;;;;;;4990263;28;20066;-75
2022/05/17 07:06:31;;;;;;;3.85;2.17;;;24.80;66.90;;;;;;4999309;28;20034;-74
2022/05/17 07:08:57;;;;;;;5.70;2.63;;;25.30;66.00;;;;;;5006998;28;20061;-75
2022/05/17 07:14:08;;;;;;;4.65;2.10;;;26.30;63.90;;;;;;5013206;28;20038;-74
2022/05/17 07:16:34;;;;;;;4.35;2.28;;;26.50;63.20;;;;;;5006440;28;20023;-77
2022/05/17 07:19:00;;;;;;;4.25;2.03;;;26.90;62.70;;;;;;5010883;28;20019;-75
2022/05/17 07:21:25;;;;;;;6.43;2.13;;;27.20;62.00;;;;;;5002228;28;20074;-74
2022/05/17 07:23:52;;;;;;;3.53;1.48;;;27.50;61.20;;;;;;5020821;28;20313;-75
2022/05/17 07:26:18;;;;;;;4.45;1.73;;;27.90;60.70;;;;;;4998517;28;20053;-74
2022/05/17 07:28:47;;;;;;;5.50;1.88;;;28.10;60.10;;;;;;5000062;28;20034;-74
2022/05/17 07:31:14;;;;;;;4.93;2.08;;;28.30;59.90;;;;;;4969255;28;20177;-74
2022/05/17 07:33:41;;;;;;;4.85;1.95;;;28.30;59.30;;;;;;4974451;28;20439;-74
2022/05/17 07:36:08;;;;;;;5.13;1.90;;;28.20;59.50;;;;;;4992407;28;20066;-76
2022/05/17 07:38:36;;;;;;;4.22;1.58;;;28.10;59.80;;;;;;4993495;28;20200;-74
2022/05/17 07:41:03;;;;;;;7.13;2.25;;;27.90;60.00;;;;;;4985485;28;20116;-77
2022/05/17 07:43:29;;;;;;;7.38;2.38;;;27.90;60.20;;;;;;4987667;28;20106;-75
2022/05/17 07:45:56;;;;;;;6.63;1.80;;;27.90;59.90;;;;;;4986092;28;20042;-75
2022/05/17 07:48:25;;;;;;;3.55;1.13;;;27.90;59.70;;;;;;4981214;28;20082;-77
2022/05/17 07:50:52;;;;;;;4.82;2.13;;;27.90;59.40;;;;;;4978051;28;20026;-76
2022/05/17 07:53:20;;;;;;;3.22;1.27;;;28.00;59.30;;;;;;4985449;28;20038;-77
2022/05/17 07:55:47;;;;;;;3.97;1.58;;;28.00;59.10;;;;;;4984753;28;20045;-76
2022/05/17 07:58:14;;;;;;;2.83;1.10;;;28.10;59.10;;;;;;4957944;28;20418;-77
2022/05/17 08:00:41;;;;;;;5.30;2.17;;;28.20;58.90;;;;;;4991682;28;20030;-77
2022/05/17 08:03:08;;;;;;;2.33;1.30;;;28.40;58.60;;;;;;4972004;28;20444;-76
2022/05/17 08:05:35;;;;;;;3.47;1.38;;;28.50;58.30;;;;;;4996439;28;20044;-76
2022/05/17 08:08:02;;;;;;;2.78;1.20;;;28.60;58.10;;;;;;4983668;28;20039;-77
2022/05/17 08:10:29;;;;;;;2.22;1.10;;;28.70;57.80;;;;;;4995617;28;20092;-76
2022/05/17 08:12:55;;;;;;;2.80;1.45;;;28.70;57.70;;;;;;4992013;28;20035;-77
2022/05/17 08:15:23;;;;;;;3.83;1.80;;;28.60;57.60;;;;;;4980623;28;20022;-75
2022/05/17 08:17:49;;;;;;;3.90;1.48;;;28.40;57.70;;;;;;4990552;28;20058;-75
2022/05/17 08:20:15;;;;;;;3.78;1.33;;;28.20;57.80;;;;;;4988976;28;20035;-75
2022/05/17 08:22:43;;;;;;;5.00;1.95;;;28.00;58.10;;;;;;4994989;28;20108;-75
2022/05/17 08:27:57;;;;;;;3.63;1.48;;;27.70;58.40;;;;;;4988653;28;20458;-75
2022/05/17 08:30:25;;;;;;;2.60;1.15;;;27.60;58.60;;;;;;4992770;28;20026;-75
2022/05/17 08:35:49;;;;;;;3.75;1.70;;;27.40;58.60;;;;;;4984376;28;20148;-75
2022/05/17 08:38:27;;;;;;;3.95;1.40;;;27.40;58.70;;;;;;4974633;28;20026;-74
2022/05/17 08:41:11;;;;;;;4.28;1.58;;;27.30;58.60;;;;;;4983417;28;20167;-74
2022/05/17 08:43:52;;;;;;;3.08;1.35;;;27.30;58.80;;;;;;4984721;28;20382;-74
2022/05/17 08:46:23;;;;;;;3.60;1.63;;;27.20;58.90;;;;;;4991876;28;20088;-75
2022/05/17 08:48:50;;;;;;;3.30;1.10;;;27.20;59.00;;;;;;4981162;28;20018;-75
2022/05/17 08:51:24;;;;;;;3.80;1.65;;;27.20;59.00;;;;;;4982638;28;20092;-75
2022/05/17 08:53:51;;;;;;;3.28;1.48;;;27.20;58.90;;;;;;4985976;28;20302;-74
2022/05/17 08:56:16;;;;;;;2.22;1.02;;;27.20;58.90;;;;;;4966411;28;20042;-74
2022/05/17 08:58:47;;;;;;;4.32;1.40;;;27.10;58.90;;;;;;4991403;28;20065;-74
2022/05/17 09:01:25;;;;;;;3.90;1.38;;;27.20;59.00;;;;;;4980532;28;20034;-73
2022/05/17 09:04:09;;;;;;;5.53;1.95;;;27.30;58.80;;;;;;4993783;28;20045;-74
2022/05/17 09:07:09;;;;;;;2.70;1.10;;;27.60;58.50;;;;;;4965272;28;20543;-75
2022/05/17 09:09:45;;;;;;;3.35;1.20;;;27.90;57.90;;;;;;4941230;28;20422;-79
2022/05/17 09:12:38;;;;;;;2.80;1.67;;;28.20;57.50;;;;;;4979151;28;20100;-74
2022/05/17 09:15:05;;;;;;;;;;;28.40;57.00;;;;;;4989369;28;20041;-75
2022/05/17 09:17:32;;;;;;;2.28;1.00;;;28.50;57.10;;;;;;4965593;28;19914;-75
2022/05/17 09:19:59;;;;;;;2.60;1.23;;;28.60;57.10;;;;;;4988693;28;20122;-74
2022/05/17 09:22:24;;;;;;;3.75;1.10;;;28.70;57.00;;;;;;4972339;28;20038;-74
2022/05/17 09:24:58;;;;;;;3.42;1.13;;;28.70;56.80;;;;;;4991930;28;20356;-75
2022/05/17 09:27:37;;;;;;;3.60;1.27;;;28.70;56.60;;;;;;4979744;28;20039;-74
2022/05/17 09:30:13;;;;;;;2.92;0.98;;;28.70;56.60;;;;;;4995509;28;20029;-74
2022/05/17 09:32:44;;;;;;;3.45;1.08;;;28.70;56.50;;;;;;4982450;28;20339;-75
2022/05/17 09:35:11;;;;;;;2.65;1.20;;;28.70;56.50;;;;;;4986757;28;20177;-75
2022/05/17 09:37:42;;;;;;;2.42;1.10;;;28.60;56.40;;;;;;4949138;28;20061;-75
2022/05/17 09:40:12;;;;;;;3.63;1.17;;;28.50;56.50;;;;;;4982774;28;20132;-75
2022/05/17 09:42:55;;;;;;;3.88;1.15;;;28.40;56.70;;;;;;4992515;28;20095;-74
2022/05/17 09:45:36;;;;;;;3.83;1.20;;;28.30;56.70;;;;;;4965287;28;20256;-75
2022/05/17 09:48:06;;;;;;;2.15;1.10;;;28.30;56.90;;;;;;4984138;28;20061;-75
2022/05/17 09:53:44;;;;;;;3.25;1.00;;;28.20;56.90;;;;;;4980212;28;20050;-73
2022/05/17 09:56:11;;;;;;;4.32;1.25;;;28.20;56.90;;;;;;4975210;28;20254;-73
2022/05/17 09:58:42;;;;;;;3.88;1.05;;;28.30;57.10;;;;;;4979801;28;20084;-73
2022/05/17 10:01:17;;;;;;;4.45;1.17;;;28.30;56.90;;;;;;4981132;28;20093;-74
2022/05/17 10:03:58;;;;;;;2.72;1.30;;;28.30;56.90;;;;;;4993420;28;20101;-75
2022/05/17 10:06:41;;;;;;;4.40;1.13;;;28.30;57.00;;;;;;4965223;28;20522;-74
2022/05/17 10:09:25;;;;;;;2.95;1.15;;;28.40;56.90;;;;;;4965681;28;20030;-75
2022/05/17 10:12:16;;;;;;;2.40;1.20;;;28.50;57.00;;;;;;4994369;28;20045;-75
2022/05/17 10:14:50;;;;;;;1.90;0.90;;;28.50;56.80;;;;;;4977120;28;20385;-74
2022/05/17 10:18:03;;;;;;;2.65;1.23;;;28.50;56.80;;;;;;4983086;28;20066;-75
2022/05/17 10:20:32;;;;;;;;;;;28.50;56.80;;;;;;4914473;29;20211;-74
2022/05/17 10:23:05;;;;;;;3.17;1.75;;;28.60;57.00;;;;;;4915958;29;19915;-75
2022/05/17 10:25:37;;;;;;;2.05;0.88;;;28.60;56.90;;;;;;4939674;28;20042;-74
2022/05/17 10:28:22;;;;;;;3.70;1.33;;;28.70;56.70;;;;;;4987575;28;20038;-73
2022/05/17 10:31:26;;;;;;;1.83;1.42;;;28.90;56.70;;;;;;4961873;28;20113;-77
2022/05/17 10:34:05;;;;;;;3.47;1.50;;;28.90;56.50;;;;;;4985999;28;20546;-74
2022/05/17 10:36:45;;;;;;;3.83;1.27;;;29.10;56.40;;;;;;4987497;28;20375;-74
2022/05/17 10:39:34;;;;;;;2.22;1.02;;;29.30;56.20;;;;;;4997193;28;20439;-75
2022/05/17 10:42:01;;;;;;;1.65;0.70;;;29.70;55.50;;;;;;4980688;28;20064;-75
2022/05/17 10:44:51;;;;;;;2.63;1.27;;;30.00;55.20;;;;;;4972161;28;20042;-76
2022/05/17 10:47:39;;;;;;;1.67;0.70;;;30.20;55.40;;;;;;4977663;28;20084;-75
2022/05/17 10:50:30;;;;;;;2.55;0.80;;;30.30;54.70;;;;;;4992805;28;20026;-76
2022/05/17 10:53:28;;;;;;;2.70;1.13;;;30.40;54.40;;;;;;4982427;28;20038;-75
2022/05/17 10:56:06;;;;;;;3.53;1.52;;;30.60;54.30;;;;;;4977820;28;20410;-76
2022/05/17 10:58:54;;;;;;;1.38;0.90;;;30.80;54.20;;;;;;4992571;28;20537;-76
2022/05/17 11:01:31;;;;;;;3.58;1.20;;;31.00;53.80;;;;;;4970178;28;20105;-76
2022/05/17 11:04:16;;;;;;;2.30;1.00;;;31.10;53.40;;;;;;4970147;28;20034;-76
2022/05/17 11:07:19;;;;;;;1.98;0.65;;;31.30;53.20;;;;;;4970003;28;20053;-77
2022/05/17 11:10:04;;;;;;;1.73;0.68;;;31.50;53.40;;;;;;5000372;28;20030;-77
2022/05/17 11:12:38;;;;;;;2.88;0.93;;;31.80;52.40;;;;;;5002232;28;20081;-77
2022/05/17 11:15:15;;;;;;;2.67;0.75;;;32.20;52.10;;;;;;4991007;28;20034;-77
2022/05/17 11:17:54;;;;;;;3.28;0.98;;;32.50;51.70;;;;;;4988715;28;20033;-79
2022/05/17 11:20:31;;;;;;;2.15;0.90;;;32.80;50.90;;;;;;4985879;28;20077;-78
2022/05/17 11:23:35;;;;;;;2.13;1.30;;;33.00;50.40;;;;;;4991983;28;20061;-76
2022/05/17 11:26:29;;;;;;;2.45;1.10;;;33.20;50.00;;;;;;4970837;28;20042;-83
2022/05/17 11:29:15;;;;;;;3.45;1.15;;;33.30;49.20;;;;;;4988208;28;20077;-78
2022/05/17 11:32:08;;;;;;;2.30;0.82;;;33.20;49.10;;;;;;4999139;28;20583;-77
2022/05/17 11:34:42;;;;;;;3.67;0.98;;;33.10;49.20;;;;;;4994713;28;20301;-81
2022/05/17 11:37:38;;;;;;;2.20;0.90;;;33.00;49.20;;;;;;4984390;28;20391;-76
2022/05/17 11:40:07;;;;;;;4.65;1.10;;;33.00;49.10;;;;;;4992985;28;20393;-76
2022/05/17 11:42:34;;;;;;;3.58;1.00;;;33.00;49.30;;;;;;4990885;28;20044;-76
2022/05/17 11:45:22;;;;;;;3.85;1.00;;;33.10;49.20;;;;;;5000923;28;20042;-76
2022/05/17 11:47:56;;;;;;;2.67;0.70;;;33.20;48.90;;;;;;4989977;28;20085;-75
2022/05/17 11:50:33;;;;;;;3.22;1.13;;;33.30;48.80;;;;;;4970843;28;20110;-74
2022/05/17 11:53:24;;;;;;;2.63;1.00;;;33.40;48.70;;;;;;4964669;28;20481;-75
2022/05/17 11:56:12;;;;;;;1.58;0.88;;;33.50;48.50;;;;;;4973482;28;20782;-75
2022/05/17 11:58:40;;;;;;;2.05;0.90;;;33.60;48.30;;;;;;4970148;28;20548;-76
2022/05/17 12:01:31;;;;;;;2.33;0.60;;;33.70;48.50;;;;;;4989075;28;20085;-75
2022/05/17 12:04:02;;;;;;;4.30;1.23;;;33.80;48.20;;;;;;4964925;28;20038;-74
2022/05/17 12:06:40;;;;;;;1.65;0.95;;;33.80;48.30;;;;;;4975429;28;20512;-75
2022/05/17 12:09:31;;;;;;;2.33;0.80;;;33.70;48.10;;;;;;4974509;28;20031;-73
2022/05/17 12:12:34;;;;;;;3.58;1.35;;;33.70;48.10;;;;;;4975492;28;20501;-74
2022/05/17 12:15:29;;;;;;;3.80;1.30;;;33.80;48.00;;;;;;4978833;28;20038;-73
2022/05/17 12:18:40;;;;;;;1.98;0.80;;;33.90;48.00;;;;;;4962235;28;20046;-76
2022/05/17 12:21:22;;;;;;;3.25;1.15;;;34.00;47.80;;;;;;4982059;28;20046;-75
2022/05/17 12:23:58;;;;;;;2.17;1.05;;;34.10;47.70;;;;;;4973414;28;20045;-75
2022/05/17 12:26:36;;;;;;;2.08;0.88;;;34.10;47.80;;;;;;4968318;28;20605;-75
2022/05/17 12:30:53;;;;;;;2.03;0.80;;;34.10;47.80;;;;;;4973581;28;20042;-75
2022/05/17 12:32:04;;;;;;;3.30;0.70;;;34.00;47.80;;;;;;4997387;28;20038;-76
2022/05/17 12:34:30;;;;;;;2.38;1.17;;;34.10;47.70;;;;;;4983469;28;20077;-75
2022/05/17 12:37:16;;;;;;;5.38;1.33;;;34.10;47.60;;;;;;4969602;28;20557;-76
2022/05/17 12:45:24;;;;;;;2.00;0.93;;;33.80;47.90;;;;;;4966910;28;20078;-74
2022/05/17 12:47:53;;;;;;;2.35;0.82;;;33.70;47.90;;;;;;4982914;28;20358;-74
2022/05/17 12:50:56;;;;;;;0.95;0.65;;;33.70;48.00;;;;;;4993309;28;20221;-74
2022/05/17 12:53:24;;;;;;;3.03;1.13;;;33.70;47.90;;;;;;4977405;28;20049;-74
2022/05/17 12:56:11;;;;;;;2.53;0.90;;;33.70;48.20;;;;;;5003029;28;20072;-74
2022/05/17 12:58:57;;;;;;;3.38;1.38;;;33.60;48.10;;;;;;4985969;28;20037;-74
2022/05/17 13:01:33;;;;;;;2.33;1.10;;;33.40;48.20;;;;;;4986912;28;20050;-74
2022/05/17 13:04:10;;;;;;;2.38;1.08;;;33.30;48.50;;;;;;4969589;28;20125;-74
2022/05/17 13:06:40;;;;;;;2.88;1.00;;;33.20;48.60;;;;;;4983904;28;20042;-75
2022/05/17 13:09:15;;;;;;;2.97;1.50;;;33.00;48.80;;;;;;4996231;28;20030;-74
2022/05/17 13:11:41;;;;;;;2.70;0.95;;;32.90;48.90;;;;;;4985702;28;20275;-74
2022/05/17 13:14:25;;;;;;;2.67;1.23;;;32.80;49.10;;;;;;4985422;28;20056;-73
2022/05/17 13:16:52;;;;;;;2.13;0.63;;;32.70;49.10;;;;;;4968604;28;20057;-73
2022/05/17 13:19:22;;;;;;;4.03;1.15;;;32.60;49.30;;;;;;4972079;28;20027;-73
2022/05/17 13:21:54;;;;;;;3.25;0.80;;;32.60;49.40;;;;;;4979428;28;20038;-74
2022/05/17 13:24:44;;;;;;;1.83;0.70;;;32.50;49.50;;;;;;4994017;28;20163;-73
2022/05/17 13:27:20;;;;;;;3.92;1.15;;;32.40;49.50;;;;;;4992147;28;20050;-74
2022/05/17 13:30:08;;;;;;;2.63;0.90;;;32.30;50.30;;;;;;4976480;28;20050;-75